sensor_id;sensor_type;location;lat;lon;timestamp;P1;durP1;ratioP1;P2;durP2;ratioP2
47161;SDS011;32921;53.256;8.198;2024-02-28T00:01:23;321.40;;;300.35;;
47161;SDS011;32921;53.256;8.198;2024-02-28T00:03:48;324.17;;;302.85;;
47161;SDS011;32921;53.256;8.198;2024-02-28T00:06:16;399.88;;;372.42;;
47161;SDS011;32921;53.256;8.198;2024-02-28T00:08:42;456.40;;;423.17;;
47161;SDS011;32921;53.256;8.198;2024-02-28T00:11:07;484.65;;;447.92;;
47161;SDS011;32921;53.256;8.198;2024-02-28T00:13:33;493.92;;;455.52;;
47161;SDS011;32921;53.256;8.198;2024-02-28T00:15:58;558.30;;;515.88;;
47161;SDS011;32921;53.256;8.198;2024-02-28T00:18:24;541.75;;;499.77;;
47161;SDS011;32921;53.256;8.198;2024-02-28T00:20:50;592.95;;;548.22;;
47161;SDS011;32921;53.256;8.198;2024-02-28T00:23:15;566.88;;;523.83;;
47161;SDS011;32921;53.256;8.198;2024-02-28T00:25:41;510.40;;;473.25;;
47161;SDS011;32921;53.256;8.198;2024-02-28T00:28:06;484.27;;;449.17;;
47161;SDS011;32921;53.256;8.198;2024-02-28T00:30:32;498.08;;;463.05;;
47161;SDS011;32921;53.256;8.198;2024-02-28T00:32:58;403.58;;;375.65;;
47161;SDS011;32921;53.256;8.198;2024-02-28T00:35:24;396.67;;;368.48;;
47161;SDS011;32921;53.256;8.198;2024-02-28T00:37:50;362.55;;;337.45;;
47161;SDS011;32921;53.256;8.198;2024-02-28T00:40:15;326.58;;;304.48;;
47161;SDS011;32921;53.256;8.198;2024-02-28T00:42:41;385.48;;;357.65;;
47161;SDS011;32921;53.256;8.198;2024-02-28T00:45:08;405.98;;;376.45;;
47161;SDS011;32921;53.256;8.198;2024-02-28T00:47:34;410.92;;;382.00;;
47161;SDS011;32921;53.256;8.198;2024-02-28T00:50:00;410.67;;;382.33;;
47161;SDS011;32921;53.256;8.198;2024-02-28T00:52:28;431.35;;;399.15;;
47161;SDS011;32921;53.256;8.198;2024-02-28T00:54:54;466.13;;;431.83;;
47161;SDS011;32921;53.256;8.198;2024-02-28T00:57:19;525.92;;;486.77;;
47161;SDS011;32921;53.256;8.198;2024-02-28T00:59:45;512.67;;;474.25;;
47161;SDS011;32921;53.256;8.198;2024-02-28T01:02:10;467.52;;;434.85;;
47161;SDS011;32921;53.256;8.198;2024-02-28T01:04:36;505.08;;;468.25;;
47161;SDS011;32921;53.256;8.198;2024-02-28T01:07:02;456.92;;;424.42;;
47161;SDS011;32921;53.256;8.198;2024-02-28T01:09:28;479.98;;;445.52;;
47161;SDS011;32921;53.256;8.198;2024-02-28T01:11:53;472.02;;;437.30;;
47161;SDS011;32921;53.256;8.198;2024-02-28T01:14:19;444.65;;;412.90;;
47161;SDS011;32921;53.256;8.198;2024-02-28T01:16:45;457.98;;;426.45;;
47161;SDS011;32921;53.256;8.198;2024-02-28T01:19:10;450.50;;;418.02;;
47161;SDS011;32921;53.256;8.198;2024-02-28T01:21:36;424.63;;;394.60;;
47161;SDS011;32921;53.256;8.198;2024-02-28T01:24:03;430.00;;;398.25;;
47161;SDS011;32921;53.256;8.198;2024-02-28T01:26:29;437.75;;;406.08;;
47161;SDS011;32921;53.256;8.198;2024-02-28T01:28:54;419.15;;;389.50;;
47161;SDS011;32921;53.256;8.198;2024-02-28T01:31:20;426.02;;;395.20;;
47161;SDS011;32921;53.256;8.198;2024-02-28T01:33:45;406.98;;;377.98;;
47161;SDS011;32921;53.256;8.198;2024-02-28T01:36:11;436.42;;;405.40;;
47161;SDS011;32921;53.256;8.198;2024-02-28T01:38:37;421.88;;;390.75;;
47161;SDS011;32921;53.256;8.198;2024-02-28T01:41:03;393.50;;;364.50;;
47161;SDS011;32921;53.256;8.198;2024-02-28T01:43:30;373.67;;;347.60;;
47161;SDS011;32921;53.256;8.198;2024-02-28T01:45:56;381.05;;;353.63;;
47161;SDS011;32921;53.256;8.198;2024-02-28T01:48:25;382.48;;;355.65;;
47161;SDS011;32921;53.256;8.198;2024-02-28T01:50:51;337.40;;;313.45;;
47161;SDS011;32921;53.256;8.198;2024-02-28T01:53:17;286.30;;;267.63;;
47161;SDS011;32921;53.256;8.198;2024-02-28T01:55:42;373.73;;;347.63;;
47161;SDS011;32921;53.256;8.198;2024-02-28T01:58:08;326.73;;;305.27;;
47161;SDS011;32921;53.256;8.198;2024-02-28T02:00:34;380.15;;;354.15;;
47161;SDS011;32921;53.256;8.198;2024-02-28T02:03:01;368.00;;;343.02;;
47161;SDS011;32921;53.256;8.198;2024-02-28T02:05:26;371.45;;;345.80;;
47161;SDS011;32921;53.256;8.198;2024-02-28T02:07:52;394.30;;;366.58;;
47161;SDS011;32921;53.256;8.198;2024-02-28T02:10:20;372.55;;;347.13;;
47161;SDS011;32921;53.256;8.198;2024-02-28T02:12:46;369.30;;;344.67;;
47161;SDS011;32921;53.256;8.198;2024-02-28T02:15:11;395.92;;;368.77;;
47161;SDS011;32921;53.256;8.198;2024-02-28T02:17:37;347.77;;;325.08;;
47161;SDS011;32921;53.256;8.198;2024-02-28T02:20:03;375.88;;;351.48;;
47161;SDS011;32921;53.256;8.198;2024-02-28T02:22:37;372.05;;;347.80;;
47161;SDS011;32921;53.256;8.198;2024-02-28T02:25:05;367.20;;;343.70;;
47161;SDS011;32921;53.256;8.198;2024-02-28T02:27:31;390.00;;;364.38;;
47161;SDS011;32921;53.256;8.198;2024-02-28T02:29:57;396.08;;;370.02;;
47161;SDS011;32921;53.256;8.198;2024-02-28T02:32:23;405.13;;;377.75;;
47161;SDS011;32921;53.256;8.198;2024-02-28T02:34:49;426.88;;;398.35;;
47161;SDS011;32921;53.256;8.198;2024-02-28T02:37:14;371.63;;;346.95;;
47161;SDS011;32921;53.256;8.198;2024-02-28T02:39:40;407.55;;;380.33;;
47161;SDS011;32921;53.256;8.198;2024-02-28T02:42:06;433.95;;;404.83;;
47161;SDS011;32921;53.256;8.198;2024-02-28T02:44:31;424.92;;;396.42;;
47161;SDS011;32921;53.256;8.198;2024-02-28T02:46:57;413.95;;;386.95;;
47161;SDS011;32921;53.256;8.198;2024-02-28T02:49:22;387.63;;;361.80;;
47161;SDS011;32921;53.256;8.198;2024-02-28T02:51:48;400.88;;;374.38;;
47161;SDS011;32921;53.256;8.198;2024-02-28T02:54:13;402.95;;;375.55;;
47161;SDS011;32921;53.256;8.198;2024-02-28T02:56:42;419.90;;;391.83;;
47161;SDS011;32921;53.256;8.198;2024-02-28T02:59:09;375.05;;;350.92;;
47161;SDS011;32921;53.256;8.198;2024-02-28T03:01:37;389.95;;;364.05;;
47161;SDS011;32921;53.256;8.198;2024-02-28T03:04:03;376.38;;;352.25;;
47161;SDS011;32921;53.256;8.198;2024-02-28T03:06:29;403.92;;;376.52;;
47161;SDS011;32921;53.256;8.198;2024-02-28T03:08:54;419.00;;;390.90;;
47161;SDS011;32921;53.256;8.198;2024-02-28T03:11:20;372.15;;;348.55;;
47161;SDS011;32921;53.256;8.198;2024-02-28T03:13:45;423.55;;;394.98;;
47161;SDS011;32921;53.256;8.198;2024-02-28T03:16:11;394.45;;;368.50;;
47161;SDS011;32921;53.256;8.198;2024-02-28T03:18:37;379.15;;;354.85;;
47161;SDS011;32921;53.256;8.198;2024-02-28T03:21:03;381.02;;;356.23;;
47161;SDS011;32921;53.256;8.198;2024-02-28T03:23:28;379.30;;;355.23;;
47161;SDS011;32921;53.256;8.198;2024-02-28T03:25:54;414.88;;;386.83;;
47161;SDS011;32921;53.256;8.198;2024-02-28T03:28:20;394.45;;;369.17;;
47161;SDS011;32921;53.256;8.198;2024-02-28T03:30:45;419.27;;;391.77;;
47161;SDS011;32921;53.256;8.198;2024-02-28T03:33:11;402.27;;;375.45;;
47161;SDS011;32921;53.256;8.198;2024-02-28T03:35:36;375.73;;;351.33;;
47161;SDS011;32921;53.256;8.198;2024-02-28T03:38:02;404.95;;;377.73;;
47161;SDS011;32921;53.256;8.198;2024-02-28T03:40:28;440.80;;;409.83;;
47161;SDS011;32921;53.256;8.198;2024-02-28T03:42:53;413.25;;;385.48;;
47161;SDS011;32921;53.256;8.198;2024-02-28T03:45:19;394.55;;;368.55;;
47161;SDS011;32921;53.256;8.198;2024-02-28T03:47:45;442.33;;;411.88;;
47161;SDS011;32921;53.256;8.198;2024-02-28T03:50:10;408.80;;;381.40;;
47161;SDS011;32921;53.256;8.198;2024-02-28T03:52:36;469.73;;;437.70;;
47161;SDS011;32921;53.256;8.198;2024-02-28T03:55:02;405.27;;;378.17;;
47161;SDS011;32921;53.256;8.198;2024-02-28T03:57:28;452.95;;;422.20;;
47161;SDS011;32921;53.256;8.198;2024-02-28T03:59:53;424.38;;;395.65;;
47161;SDS011;32921;53.256;8.198;2024-02-28T04:02:19;434.13;;;405.20;;
47161;SDS011;32921;53.256;8.198;2024-02-28T04:04:45;498.98;;;464.95;;
47161;SDS011;32921;53.256;8.198;2024-02-28T04:07:10;434.33;;;405.70;;
47161;SDS011;32921;53.256;8.198;2024-02-28T04:09:36;443.08;;;413.88;;
47161;SDS011;32921;53.256;8.198;2024-02-28T04:12:01;453.45;;;423.50;;
47161;SDS011;32921;53.256;8.198;2024-02-28T04:14:28;437.85;;;408.88;;
47161;SDS011;32921;53.256;8.198;2024-02-28T04:16:53;461.90;;;431.02;;
47161;SDS011;32921;53.256;8.198;2024-02-28T04:19:19;439.17;;;410.05;;
47161;SDS011;32921;53.256;8.198;2024-02-28T04:21:45;487.05;;;454.73;;
47161;SDS011;32921;53.256;8.198;2024-02-28T04:24:10;483.83;;;451.08;;
47161;SDS011;32921;53.256;8.198;2024-02-28T04:26:36;470.00;;;438.85;;
47161;SDS011;32921;53.256;8.198;2024-02-28T04:29:01;499.25;;;465.33;;
47161;SDS011;32921;53.256;8.198;2024-02-28T04:31:32;487.23;;;453.77;;
47161;SDS011;32921;53.256;8.198;2024-02-28T04:33:58;508.17;;;473.77;;
47161;SDS011;32921;53.256;8.198;2024-02-28T04:36:24;471.38;;;440.05;;
47161;SDS011;32921;53.256;8.198;2024-02-28T04:38:49;469.92;;;439.05;;
47161;SDS011;32921;53.256;8.198;2024-02-28T04:41:15;447.55;;;418.27;;
47161;SDS011;32921;53.256;8.198;2024-02-28T04:43:40;498.65;;;465.05;;
47161;SDS011;32921;53.256;8.198;2024-02-28T04:46:06;491.90;;;458.70;;
47161;SDS011;32921;53.256;8.198;2024-02-28T04:48:31;512.95;;;478.05;;
47161;SDS011;32921;53.256;8.198;2024-02-28T04:50:57;477.83;;;446.17;;
47161;SDS011;32921;53.256;8.198;2024-02-28T04:53:24;533.65;;;496.67;;
47161;SDS011;32921;53.256;8.198;2024-02-28T04:55:49;494.63;;;461.77;;
47161;SDS011;32921;53.256;8.198;2024-02-28T04:58:15;520.17;;;484.90;;
47161;SDS011;32921;53.256;8.198;2024-02-28T05:00:41;491.38;;;458.17;;
47161;SDS011;32921;53.256;8.198;2024-02-28T05:03:06;524.15;;;488.77;;
47161;SDS011;32921;53.256;8.198;2024-02-28T05:05:32;507.73;;;473.77;;
47161;SDS011;32921;53.256;8.198;2024-02-28T05:07:58;550.35;;;512.92;;
47161;SDS011;32921;53.256;8.198;2024-02-28T05:10:23;559.85;;;521.70;;
47161;SDS011;32921;53.256;8.198;2024-02-28T05:12:49;536.83;;;500.20;;
47161;SDS011;32921;53.256;8.198;2024-02-28T05:15:14;571.50;;;532.10;;
47161;SDS011;32921;53.256;8.198;2024-02-28T05:17:40;579.05;;;538.90;;
47161;SDS011;32921;53.256;8.198;2024-02-28T05:20:06;572.33;;;532.80;;
47161;SDS011;32921;53.256;8.198;2024-02-28T05:22:32;580.25;;;539.90;;
47161;SDS011;32921;53.256;8.198;2024-02-28T05:24:57;590.30;;;549.60;;
47161;SDS011;32921;53.256;8.198;2024-02-28T05:27:23;577.53;;;537.75;;
47161;SDS011;32921;53.256;8.198;2024-02-28T05:29:49;602.95;;;561.20;;
47161;SDS011;32921;53.256;8.198;2024-02-28T05:32:14;600.38;;;558.85;;
47161;SDS011;32921;53.256;8.198;2024-02-28T05:34:42;600.20;;;558.58;;
47161;SDS011;32921;53.256;8.198;2024-02-28T05:37:07;601.92;;;560.33;;
47161;SDS011;32921;53.256;8.198;2024-02-28T05:39:33;611.30;;;568.97;;
47161;SDS011;32921;53.256;8.198;2024-02-28T05:41:59;647.50;;;602.47;;
47161;SDS011;32921;53.256;8.198;2024-02-28T05:44:25;663.88;;;617.13;;
47161;SDS011;32921;53.256;8.198;2024-02-28T05:46:50;644.13;;;599.47;;
47161;SDS011;32921;53.256;8.198;2024-02-28T05:49:16;641.05;;;596.10;;
47161;SDS011;32921;53.256;8.198;2024-02-28T05:51:41;655.97;;;609.97;;
47161;SDS011;32921;53.256;8.198;2024-02-28T05:54:07;648.65;;;603.38;;
47161;SDS011;32921;53.256;8.198;2024-02-28T05:56:33;661.15;;;614.58;;
47161;SDS011;32921;53.256;8.198;2024-02-28T05:58:58;686.90;;;638.17;;
47161;SDS011;32921;53.256;8.198;2024-02-28T06:01:24;677.20;;;629.33;;
47161;SDS011;32921;53.256;8.198;2024-02-28T06:03:50;685.45;;;637.10;;
47161;SDS011;32921;53.256;8.198;2024-02-28T06:06:15;690.22;;;641.00;;
47161;SDS011;32921;53.256;8.198;2024-02-28T06:08:42;722.85;;;671.50;;
47161;SDS011;32921;53.256;8.198;2024-02-28T06:11:08;714.42;;;663.72;;
47161;SDS011;32921;53.256;8.198;2024-02-28T06:13:35;678.65;;;630.17;;
47161;SDS011;32921;53.256;8.198;2024-02-28T06:16:01;719.28;;;667.63;;
47161;SDS011;32921;53.256;8.198;2024-02-28T06:18:27;724.38;;;672.55;;
47161;SDS011;32921;53.256;8.198;2024-02-28T06:20:53;713.85;;;661.90;;
47161;SDS011;32921;53.256;8.198;2024-02-28T06:23:19;718.58;;;667.13;;
47161;SDS011;32921;53.256;8.198;2024-02-28T06:25:45;719.30;;;667.53;;
47161;SDS011;32921;53.256;8.198;2024-02-28T06:28:11;737.38;;;683.75;;
47161;SDS011;32921;53.256;8.198;2024-02-28T06:30:37;730.85;;;677.95;;
47161;SDS011;32921;53.256;8.198;2024-02-28T06:33:02;742.95;;;689.42;;
47161;SDS011;32921;53.256;8.198;2024-02-28T06:35:29;773.90;;;717.28;;
47161;SDS011;32921;53.256;8.198;2024-02-28T06:37:55;738.13;;;684.00;;
47161;SDS011;32921;53.256;8.198;2024-02-28T06:40:20;773.90;;;717.60;;
47161;SDS011;32921;53.256;8.198;2024-02-28T06:42:46;747.60;;;692.63;;
47161;SDS011;32921;53.256;8.198;2024-02-28T06:45:12;769.55;;;713.10;;
47161;SDS011;32921;53.256;8.198;2024-02-28T06:47:38;783.78;;;726.13;;
47161;SDS011;32921;53.256;8.198;2024-02-28T06:50:03;786.85;;;728.45;;
47161;SDS011;32921;53.256;8.198;2024-02-28T06:52:30;782.22;;;724.70;;
47161;SDS011;32921;53.256;8.198;2024-02-28T06:54:56;785.42;;;726.95;;
47161;SDS011;32921;53.256;8.198;2024-02-28T06:57:21;802.55;;;742.92;;
47161;SDS011;32921;53.256;8.198;2024-02-28T06:59:47;791.60;;;732.65;;
47161;SDS011;32921;53.256;8.198;2024-02-28T07:02:13;782.80;;;724.83;;
47161;SDS011;32921;53.256;8.198;2024-02-28T07:04:39;758.60;;;703.08;;
47161;SDS011;32921;53.256;8.198;2024-02-28T07:07:06;760.28;;;704.38;;
47161;SDS011;32921;53.256;8.198;2024-02-28T07:09:31;738.88;;;684.08;;
47161;SDS011;32921;53.256;8.198;2024-02-28T07:11:57;782.60;;;724.63;;
47161;SDS011;32921;53.256;8.198;2024-02-28T07:14:24;780.42;;;722.83;;
47161;SDS011;32921;53.256;8.198;2024-02-28T07:16:49;811.03;;;750.50;;
47161;SDS011;32921;53.256;8.198;2024-02-28T07:19:17;799.33;;;740.20;;
47161;SDS011;32921;53.256;8.198;2024-02-28T07:21:43;781.92;;;723.17;;
47161;SDS011;32921;53.256;8.198;2024-02-28T07:24:09;755.85;;;699.10;;
47161;SDS011;32921;53.256;8.198;2024-02-28T07:26:35;808.13;;;747.45;;
47161;SDS011;32921;53.256;8.198;2024-02-28T07:29:00;778.03;;;720.17;;
47161;SDS011;32921;53.256;8.198;2024-02-28T07:31:26;803.28;;;742.97;;
47161;SDS011;32921;53.256;8.198;2024-02-28T07:33:52;739.08;;;684.85;;
47161;SDS011;32921;53.256;8.198;2024-02-28T07:36:17;786.75;;;728.78;;
47161;SDS011;32921;53.256;8.198;2024-02-28T07:38:43;771.50;;;714.47;;
47161;SDS011;32921;53.256;8.198;2024-02-28T07:41:08;784.05;;;725.88;;
47161;SDS011;32921;53.256;8.198;2024-02-28T07:43:34;773.90;;;716.45;;
47161;SDS011;32921;53.256;8.198;2024-02-28T07:46:06;765.92;;;709.60;;
47161;SDS011;32921;53.256;8.198;2024-02-28T07:48:33;783.05;;;725.58;;
47161;SDS011;32921;53.256;8.198;2024-02-28T07:50:58;736.58;;;682.20;;
47161;SDS011;32921;53.256;8.198;2024-02-28T07:53:24;787.20;;;728.00;;
47161;SDS011;32921;53.256;8.198;2024-02-28T07:55:49;751.17;;;695.65;;
47161;SDS011;32921;53.256;8.198;2024-02-28T07:58:15;764.85;;;709.15;;
47161;SDS011;32921;53.256;8.198;2024-02-28T08:00:41;764.88;;;708.42;;
47161;SDS011;32921;53.256;8.198;2024-02-28T08:03:08;720.33;;;667.75;;
47161;SDS011;32921;53.256;8.198;2024-02-28T08:05:34;738.15;;;684.22;;
47161;SDS011;32921;53.256;8.198;2024-02-28T08:08:04;709.25;;;657.20;;
47161;SDS011;32921;53.256;8.198;2024-02-28T08:10:31;698.35;;;648.08;;
47161;SDS011;32921;53.256;8.198;2024-02-28T08:12:56;713.10;;;661.17;;
47161;SDS011;32921;53.256;8.198;2024-02-28T08:15:22;702.60;;;651.83;;
47161;SDS011;32921;53.256;8.198;2024-02-28T08:17:48;696.45;;;646.50;;
47161;SDS011;32921;53.256;8.198;2024-02-28T08:20:14;672.70;;;624.03;;
47161;SDS011;32921;53.256;8.198;2024-02-28T08:22:40;714.78;;;663.08;;
47161;SDS011;32921;53.256;8.198;2024-02-28T08:25:05;685.38;;;636.13;;
47161;SDS011;32921;53.256;8.198;2024-02-28T08:27:32;696.85;;;647.05;;
47161;SDS011;32921;53.256;8.198;2024-02-28T08:29:59;665.33;;;617.17;;
47161;SDS011;32921;53.256;8.198;2024-02-28T08:32:25;638.90;;;592.80;;
47161;SDS011;32921;53.256;8.198;2024-02-28T08:34:51;680.50;;;631.45;;
47161;SDS011;32921;53.256;8.198;2024-02-28T08:37:19;684.03;;;634.85;;
47161;SDS011;32921;53.256;8.198;2024-02-28T08:39:45;685.85;;;636.00;;
47161;SDS011;32921;53.256;8.198;2024-02-28T08:42:10;628.50;;;584.05;;
47161;SDS011;32921;53.256;8.198;2024-02-28T08:44:37;622.50;;;577.88;;
47161;SDS011;32921;53.256;8.198;2024-02-28T08:47:02;601.10;;;559.10;;
47161;SDS011;32921;53.256;8.198;2024-02-28T08:49:28;540.67;;;502.70;;
47161;SDS011;32921;53.256;8.198;2024-02-28T08:51:55;549.55;;;511.08;;
47161;SDS011;32921;53.256;8.198;2024-02-28T08:54:21;526.97;;;490.52;;
47161;SDS011;32921;53.256;8.198;2024-02-28T08:56:47;479.38;;;446.30;;
47161;SDS011;32921;53.256;8.198;2024-02-28T08:59:12;509.98;;;474.77;;
47161;SDS011;32921;53.256;8.198;2024-02-28T09:01:38;498.15;;;463.80;;
47161;SDS011;32921;53.256;8.198;2024-02-28T09:04:06;439.30;;;410.20;;
47161;SDS011;32921;53.256;8.198;2024-02-28T09:06:31;430.90;;;402.77;;
47161;SDS011;32921;53.256;8.198;2024-02-28T09:08:57;427.83;;;399.65;;
47161;SDS011;32921;53.256;8.198;2024-02-28T09:11:22;433.63;;;405.60;;
47161;SDS011;32921;53.256;8.198;2024-02-28T09:13:48;423.70;;;396.13;;
47161;SDS011;32921;53.256;8.198;2024-02-28T09:16:13;419.17;;;392.27;;
47161;SDS011;32921;53.256;8.198;2024-02-28T09:18:39;435.17;;;406.75;;
47161;SDS011;32921;53.256;8.198;2024-02-28T09:21:05;389.70;;;364.40;;
47161;SDS011;32921;53.256;8.198;2024-02-28T09:23:32;396.02;;;369.98;;
47161;SDS011;32921;53.256;8.198;2024-02-28T09:25:58;442.30;;;412.65;;
47161;SDS011;32921;53.256;8.198;2024-02-28T09:28:23;440.77;;;410.63;;
47161;SDS011;32921;53.256;8.198;2024-02-28T09:30:49;458.70;;;426.90;;
47161;SDS011;32921;53.256;8.198;2024-02-28T09:33:16;468.33;;;435.40;;
47161;SDS011;32921;53.256;8.198;2024-02-28T09:35:44;507.25;;;470.25;;
47161;SDS011;32921;53.256;8.198;2024-02-28T09:38:10;532.38;;;493.65;;
47161;SDS011;32921;53.256;8.198;2024-02-28T09:40:36;524.65;;;486.33;;
47161;SDS011;32921;53.256;8.198;2024-02-28T09:43:02;498.17;;;461.48;;
47161;SDS011;32921;53.256;8.198;2024-02-28T09:45:29;553.67;;;511.88;;
47161;SDS011;32921;53.256;8.198;2024-02-28T09:48:01;564.08;;;521.60;;
47161;SDS011;32921;53.256;8.198;2024-02-28T09:50:28;615.25;;;569.45;;
47161;SDS011;32921;53.256;8.198;2024-02-28T09:52:54;572.35;;;529.70;;
47161;SDS011;32921;53.256;8.198;2024-02-28T09:55:20;529.42;;;489.60;;
47161;SDS011;32921;53.256;8.198;2024-02-28T09:57:47;601.33;;;555.25;;
47161;SDS011;32921;53.256;8.198;2024-02-28T10:00:14;585.33;;;541.38;;
47161;SDS011;32921;53.256;8.198;2024-02-28T10:02:44;562.70;;;520.30;;
47161;SDS011;32921;53.256;8.198;2024-02-28T10:05:12;556.42;;;514.78;;
47161;SDS011;32921;53.256;8.198;2024-02-28T10:07:38;551.38;;;510.45;;
47161;SDS011;32921;53.256;8.198;2024-02-28T10:10:05;551.80;;;510.45;;
47161;SDS011;32921;53.256;8.198;2024-02-28T10:12:33;562.45;;;520.42;;
47161;SDS011;32921;53.256;8.198;2024-02-28T10:14:59;544.40;;;504.45;;
47161;SDS011;32921;53.256;8.198;2024-02-28T10:17:26;543.88;;;503.98;;
47161;SDS011;32921;53.256;8.198;2024-02-28T10:19:52;554.80;;;514.67;;
47161;SDS011;32921;53.256;8.198;2024-02-28T10:22:17;572.95;;;530.22;;
47161;SDS011;32921;53.256;8.198;2024-02-28T10:24:43;579.20;;;535.38;;
47161;SDS011;32921;53.256;8.198;2024-02-28T10:27:09;602.47;;;557.85;;
47161;SDS011;32921;53.256;8.198;2024-02-28T10:29:35;588.17;;;544.45;;
47161;SDS011;32921;53.256;8.198;2024-02-28T10:32:01;621.53;;;576.20;;
47161;SDS011;32921;53.256;8.198;2024-02-28T10:34:30;588.85;;;545.90;;
47161;SDS011;32921;53.256;8.198;2024-02-28T10:36:56;612.58;;;568.47;;
47161;SDS011;32921;53.256;8.198;2024-02-28T10:39:22;612.63;;;567.60;;
47161;SDS011;32921;53.256;8.198;2024-02-28T10:41:49;605.13;;;561.58;;
47161;SDS011;32921;53.256;8.198;2024-02-28T10:44:17;597.83;;;555.10;;
47161;SDS011;32921;53.256;8.198;2024-02-28T10:46:45;589.60;;;546.55;;
47161;SDS011;32921;53.256;8.198;2024-02-28T10:49:15;553.67;;;513.40;;
47161;SDS011;32921;53.256;8.198;2024-02-28T10:51:40;563.75;;;523.03;;
47161;SDS011;32921;53.256;8.198;2024-02-28T10:54:11;537.40;;;499.10;;
47161;SDS011;32921;53.256;8.198;2024-02-28T10:56:38;584.88;;;542.75;;
47161;SDS011;32921;53.256;8.198;2024-02-28T10:59:07;539.88;;;500.75;;
47161;SDS011;32921;53.256;8.198;2024-02-28T11:01:37;579.47;;;537.58;;
47161;SDS011;32921;53.256;8.198;2024-02-28T11:04:07;546.90;;;507.83;;
47161;SDS011;32921;53.256;8.198;2024-02-28T11:06:33;529.40;;;491.58;;
47161;SDS011;32921;53.256;8.198;2024-02-28T11:09:02;503.85;;;468.73;;
47161;SDS011;32921;53.256;8.198;2024-02-28T11:11:31;536.22;;;498.05;;
47161;SDS011;32921;53.256;8.198;2024-02-28T11:13:57;513.25;;;477.75;;
47161;SDS011;32921;53.256;8.198;2024-02-28T11:16:31;519.50;;;483.20;;
47161;SDS011;32921;53.256;8.198;2024-02-28T11:18:58;523.90;;;487.00;;
47161;SDS011;32921;53.256;8.198;2024-02-28T11:21:25;524.67;;;487.67;;
47161;SDS011;32921;53.256;8.198;2024-02-28T11:23:52;526.40;;;489.85;;
47161;SDS011;32921;53.256;8.198;2024-02-28T11:26:24;515.80;;;479.48;;
47161;SDS011;32921;53.256;8.198;2024-02-28T11:28:51;491.63;;;457.10;;
47161;SDS011;32921;53.256;8.198;2024-02-28T11:31:16;524.30;;;488.42;;
47161;SDS011;32921;53.256;8.198;2024-02-28T11:33:43;497.70;;;463.85;;
47161;SDS011;32921;53.256;8.198;2024-02-28T11:36:11;491.25;;;457.75;;
47161;SDS011;32921;53.256;8.198;2024-02-28T11:38:38;505.88;;;471.77;;
47161;SDS011;32921;53.256;8.198;2024-02-28T11:41:04;500.25;;;466.15;;
47161;SDS011;32921;53.256;8.198;2024-02-28T11:43:31;493.63;;;460.38;;
47161;SDS011;32921;53.256;8.198;2024-02-28T11:46:00;486.58;;;454.10;;
47161;SDS011;32921;53.256;8.198;2024-02-28T11:48:26;515.78;;;481.80;;
47161;SDS011;32921;53.256;8.198;2024-02-28T11:50:56;477.35;;;445.63;;
47161;SDS011;32921;53.256;8.198;2024-02-28T11:53:24;448.90;;;419.40;;
47161;SDS011;32921;53.256;8.198;2024-02-28T11:55:51;457.92;;;427.80;;
47161;SDS011;32921;53.256;8.198;2024-02-28T11:58:17;483.00;;;450.52;;
47161;SDS011;32921;53.256;8.198;2024-02-28T12:00:50;444.60;;;415.33;;
47161;SDS011;32921;53.256;8.198;2024-02-28T12:03:22;464.75;;;433.45;;
47161;SDS011;32921;53.256;8.198;2024-02-28T12:05:49;462.42;;;431.27;;
47161;SDS011;32921;53.256;8.198;2024-02-28T12:08:16;447.13;;;417.42;;
47161;SDS011;32921;53.256;8.198;2024-02-28T12:10:43;499.40;;;465.65;;
47161;SDS011;32921;53.256;8.198;2024-02-28T12:13:09;485.67;;;452.15;;
47161;SDS011;32921;53.256;8.198;2024-02-28T12:15:34;513.58;;;477.95;;
47161;SDS011;32921;53.256;8.198;2024-02-28T12:18:06;540.30;;;502.40;;
47161;SDS011;32921;53.256;8.198;2024-02-28T12:20:34;518.85;;;481.88;;
47161;SDS011;32921;53.256;8.198;2024-02-28T12:22:59;463.90;;;431.98;;
47161;SDS011;32921;53.256;8.198;2024-02-28T12:25:25;458.50;;;426.52;;
47161;SDS011;32921;53.256;8.198;2024-02-28T12:27:50;490.17;;;455.05;;
47161;SDS011;32921;53.256;8.198;2024-02-28T12:30:16;450.35;;;419.63;;
47161;SDS011;32921;53.256;8.198;2024-02-28T12:32:42;451.77;;;420.52;;
47161;SDS011;32921;53.256;8.198;2024-02-28T12:35:07;490.48;;;455.63;;
47161;SDS011;32921;53.256;8.198;2024-02-28T12:37:33;483.67;;;448.60;;
47161;SDS011;32921;53.256;8.198;2024-02-28T12:39:58;495.88;;;460.30;;
47161;SDS011;32921;53.256;8.198;2024-02-28T12:42:24;506.55;;;469.45;;
47161;SDS011;32921;53.256;8.198;2024-02-28T12:44:50;455.48;;;422.38;;
47161;SDS011;32921;53.256;8.198;2024-02-28T12:47:16;435.23;;;404.10;;
47161;SDS011;32921;53.256;8.198;2024-02-28T12:49:42;428.38;;;398.35;;
47161;SDS011;32921;53.256;8.198;2024-02-28T12:52:08;422.83;;;392.92;;
47161;SDS011;32921;53.256;8.198;2024-02-28T12:54:34;424.85;;;392.45;;
47161;SDS011;32921;53.256;8.198;2024-02-28T12:56:59;417.58;;;386.95;;
47161;SDS011;32921;53.256;8.198;2024-02-28T12:59:28;446.08;;;413.73;;
47161;SDS011;32921;53.256;8.198;2024-02-28T13:01:54;437.20;;;404.85;;
47161;SDS011;32921;53.256;8.198;2024-02-28T13:04:19;467.10;;;431.50;;
47161;SDS011;32921;53.256;8.198;2024-02-28T13:06:45;471.63;;;435.60;;
47161;SDS011;32921;53.256;8.198;2024-02-28T13:09:10;463.92;;;428.48;;
47161;SDS011;32921;53.256;8.198;2024-02-28T13:11:39;498.98;;;460.08;;
47161;SDS011;32921;53.256;8.198;2024-02-28T13:14:05;474.25;;;437.17;;
47161;SDS011;32921;53.256;8.198;2024-02-28T13:16:33;471.15;;;432.75;;
47161;SDS011;32921;53.256;8.198;2024-02-28T13:18:59;498.95;;;459.15;;
47161;SDS011;32921;53.256;8.198;2024-02-28T13:21:24;570.92;;;521.83;;
47161;SDS011;32921;53.256;8.198;2024-02-28T13:23:50;569.95;;;521.15;;
47161;SDS011;32921;53.256;8.198;2024-02-28T13:26:16;528.63;;;484.92;;
47161;SDS011;32921;53.256;8.198;2024-02-28T13:28:45;449.15;;;414.27;;
47161;SDS011;32921;53.256;8.198;2024-02-28T13:31:11;451.92;;;415.50;;
47161;SDS011;32921;53.256;8.198;2024-02-28T13:33:37;473.10;;;434.67;;
47161;SDS011;32921;53.256;8.198;2024-02-28T13:36:03;447.48;;;412.02;;
47161;SDS011;32921;53.256;8.198;2024-02-28T13:38:29;425.80;;;392.80;;
47161;SDS011;32921;53.256;8.198;2024-02-28T13:40:55;484.98;;;445.10;;
47161;SDS011;32921;53.256;8.198;2024-02-28T13:43:21;436.80;;;400.75;;
47161;SDS011;32921;53.256;8.198;2024-02-28T13:45:47;416.10;;;383.98;;
47161;SDS011;32921;53.256;8.198;2024-02-28T13:48:18;422.08;;;388.63;;
47161;SDS011;32921;53.256;8.198;2024-02-28T13:50:46;427.83;;;393.73;;